createdAt,value
2023-05-19T00:01:29.582Z,52.86
2023-05-19T00:06:33.376Z,52.82
2023-05-19T00:11:38.522Z,53.10
2023-05-19T00:16:42.917Z,53.16
2023-05-19T00:21:45.817Z,53.12
2023-05-19T00:26:48.923Z,53.38
2023-05-19T00:31:51.985Z,53.68
2023-05-19T00:36:55.045Z,53.70
2023-05-19T00:41:58.053Z,53.90
2023-05-19T00:47:01.541Z,53.83
2023-05-19T00:52:06.817Z,54.84
2023-05-19T00:57:09.728Z,54.66
2023-05-19T01:02:13.973Z,54.44
2023-05-19T01:07:17.078Z,54.67
2023-05-19T01:12:20.094Z,55.85
2023-05-19T01:17:34.630Z,55.40
2023-05-19T01:23:02.352Z,55.64
2023-05-19T01:28:43.354Z,55.66
2023-05-19T01:33:47.782Z,55.18
2023-05-19T01:38:54.383Z,55.90
2023-05-19T01:43:58.590Z,55.85
2023-05-19T01:49:02.357Z,55.72
2023-05-19T01:54:05.356Z,56.10
2023-05-19T01:59:23.651Z,56.51
2023-05-19T02:04:40.821Z,57.22
2023-05-19T02:09:53.792Z,57.84
2023-05-19T02:15:21.683Z,57.87
2023-05-19T02:20:24.712Z,58.38
2023-05-19T02:25:27.798Z,58.80
2023-05-19T02:30:32.398Z,59.20
2023-05-19T02:35:35.579Z,59.19
2023-05-19T02:40:38.551Z,58.97
2023-05-19T02:45:41.462Z,59.13
2023-05-19T02:50:44.457Z,58.87
2023-05-19T02:55:47.471Z,58.97
2023-05-19T03:00:51.700Z,58.96
2023-05-19T03:05:54.916Z,59.09
2023-05-19T03:10:58.331Z,59.03
2023-05-19T03:16:02.332Z,59.08
2023-05-19T03:21:06.293Z,59.11
2023-05-19T03:26:09.311Z,59.02
2023-05-19T03:31:13.438Z,59.59
2023-05-19T03:36:16.441Z,59.89
2023-05-19T03:41:19.649Z,59.67
2023-05-19T03:46:22.652Z,59.46
2023-05-19T03:51:26.136Z,59.85
2023-05-19T03:56:29.137Z,59.62
2023-05-19T04:01:32.089Z,59.47
2023-05-19T04:06:36.651Z,59.57
2023-05-19T04:11:40.557Z,59.60
2023-05-19T04:16:44.307Z,59.48
2023-05-19T04:21:47.298Z,59.64
2023-05-19T04:26:50.404Z,59.78
2023-05-19T04:31:53.405Z,59.84
2023-05-19T04:36:56.423Z,59.94
2023-05-19T04:42:00.451Z,59.91
2023-05-19T04:47:03.633Z,59.73
2023-05-19T04:52:11.373Z,59.72
2023-05-19T04:57:14.621Z,59.68
2023-05-19T05:02:17.816Z,59.62
2023-05-19T05:07:24.173Z,59.60
2023-05-19T05:12:27.873Z,59.37
2023-05-19T05:17:32.353Z,59.21
2023-05-19T05:22:36.270Z,59.00
2023-05-19T05:27:39.372Z,58.85
2023-05-19T05:32:42.561Z,58.65
2023-05-19T05:37:46.042Z,58.59
2023-05-19T05:42:49.124Z,58.45
2023-05-19T05:47:52.606Z,58.25
2023-05-19T05:52:56.168Z,58.08
2023-05-19T05:58:02.140Z,58.04
2023-05-19T06:03:24.598Z,57.91
2023-05-19T06:08:28.119Z,57.59
2023-05-19T06:13:31.429Z,56.80
2023-05-19T06:18:34.849Z,56.02
2023-05-19T06:23:38.404Z,55.44
2023-05-19T06:28:41.478Z,54.95
2023-05-19T06:33:44.831Z,54.49
2023-05-19T06:38:48.205Z,54.17
2023-05-19T06:43:51.426Z,54.00
2023-05-19T06:48:54.632Z,53.77
2023-05-19T06:53:57.635Z,53.39
2023-05-19T06:59:00.957Z,52.63
2023-05-19T07:04:04.152Z,52.91
2023-05-19T07:09:07.576Z,52.75
2023-05-19T07:14:11.204Z,51.18
2023-05-19T07:19:14.239Z,50.78
2023-05-19T07:24:17.777Z,49.45
2023-05-19T07:29:20.933Z,49.74
2023-05-19T07:34:24.904Z,49.45
2023-05-19T07:39:30.012Z,49.61
2023-05-19T07:44:33.023Z,49.84
2023-05-19T07:49:36.085Z,49.36
2023-05-19T07:54:39.135Z,50.00
2023-05-19T07:59:42.452Z,50.30
2023-05-19T08:04:46.255Z,49.99
2023-05-19T08:09:49.284Z,50.01
2023-05-19T08:14:52.852Z,49.35
2023-05-19T08:19:55.911Z,47.64
2023-05-19T08:24:58.776Z,45.44
2023-05-19T08:30:01.760Z,46.18
2023-05-19T08:35:05.140Z,46.63
2023-05-19T08:40:12.068Z,47.39
2023-05-19T08:45:15.453Z,47.95
2023-05-19T08:50:25.661Z,48.34
2023-05-19T08:56:11.221Z,48.49
2023-05-19T09:01:18.172Z,48.25
2023-05-19T09:06:21.858Z,47.83
2023-05-19T09:11:24.970Z,46.38
2023-05-19T09:16:29.926Z,44.79
2023-05-19T09:21:33.947Z,43.09
2023-05-19T09:26:38.693Z,43.35
2023-05-19T09:31:56.368Z,43.64
2023-05-19T09:37:00.463Z,44.74
2023-05-19T09:42:04.953Z,45.22
2023-05-19T09:47:09.882Z,45.02
2023-05-19T09:52:16.767Z,44.92
2023-05-19T09:57:27.264Z,45.00
2023-05-19T10:02:31.748Z,44.09
2023-05-19T10:07:35.833Z,42.56
2023-05-19T10:12:39.739Z,42.27
2023-05-19T10:17:44.322Z,42.19
2023-05-19T10:22:48.128Z,43.15
2023-05-19T10:28:01.615Z,43.80
2023-05-19T10:33:10.658Z,43.69
2023-05-19T10:38:38.817Z,44.68
2023-05-19T10:43:51.753Z,45.07
2023-05-19T10:48:55.962Z,46.22
2023-05-19T10:54:03.037Z,46.85
2023-05-19T10:59:06.309Z,47.69
2023-05-19T11:04:15.164Z,48.84
2023-05-19T11:09:22.532Z,49.66
2023-05-19T11:14:32.858Z,49.94
2023-05-19T11:19:36.502Z,50.50
2023-05-19T11:24:44.845Z,50.74
2023-05-19T11:29:48.589Z,51.02
2023-05-19T11:34:52.773Z,50.86
2023-05-19T11:39:55.967Z,50.50
2023-05-19T11:44:59.075Z,50.63
2023-05-19T11:50:02.186Z,50.26
2023-05-19T11:55:06.852Z,50.31
2023-05-19T12:00:11.556Z,50.88
2023-05-19T12:05:26.139Z,51.72
2023-05-19T12:10:31.918Z,51.80
2023-05-19T12:15:35.982Z,51.98
2023-05-19T12:20:39.662Z,52.25
2023-05-19T12:25:42.623Z,52.40
2023-05-19T12:30:52.235Z,52.48
2023-05-19T12:35:55.748Z,52.36
2023-05-19T12:41:00.307Z,52.61
2023-05-19T12:46:13.635Z,52.67
2023-05-19T12:51:18.201Z,52.64
2023-05-19T12:56:22.833Z,52.98
2023-05-19T13:01:26.188Z,52.92
2023-05-19T13:06:29.369Z,53.24
2023-05-19T13:11:32.388Z,53.31
2023-05-19T13:16:35.408Z,53.72
2023-05-19T13:21:38.284Z,54.35
2023-05-19T13:26:42.010Z,54.54
2023-05-19T13:31:45.237Z,53.78
2023-05-19T13:36:49.207Z,53.14
2023-05-19T13:41:52.362Z,52.94
2023-05-19T13:46:55.445Z,52.76
2023-05-19T13:52:00.227Z,53.00
2023-05-19T13:57:03.330Z,53.57
2023-05-19T14:02:08.065Z,54.07
2023-05-19T14:07:11.189Z,54.51
2023-05-19T14:12:14.191Z,54.93
2023-05-19T14:17:17.092Z,55.65
2023-05-19T14:22:20.132Z,56.29
2023-05-19T14:27:23.016Z,56.45
2023-05-19T14:32:27.882Z,56.17
2023-05-19T14:37:32.621Z,55.74
2023-05-19T14:42:35.614Z,55.40
2023-05-19T14:47:38.542Z,55.18
2023-05-19T14:52:41.618Z,54.65
2023-05-19T14:57:44.663Z,54.31
2023-05-19T15:02:48.264Z,53.69
2023-05-19T15:07:51.554Z,53.83
2023-05-19T15:12:54.574Z,54.15
2023-05-19T15:17:57.673Z,54.71
2023-05-19T15:23:00.799Z,55.01
2023-05-19T15:28:04.003Z,55.66
2023-05-19T15:33:07.067Z,56.03
2023-05-19T15:38:10.115Z,56.28
2023-05-19T15:43:13.466Z,56.20
2023-05-19T15:48:16.665Z,56.06
2023-05-19T15:53:20.685Z,56.02
2023-05-19T15:58:23.787Z,56.05
2023-05-19T16:03:27.549Z,56.32
2023-05-19T16:08:31.343Z,56.53
2023-05-19T16:13:34.556Z,56.57
2023-05-19T16:18:37.806Z,56.95
2023-05-19T16:23:40.972Z,56.94
2023-05-19T16:28:44.260Z,56.92
2023-05-19T16:33:47.492Z,56.78
2023-05-19T16:38:50.497Z,56.94
2023-05-19T16:43:53.503Z,57.03
2023-05-19T16:48:56.818Z,57.11
2023-05-19T16:54:00.446Z,57.41
2023-05-19T16:59:03.448Z,57.46
2023-05-19T17:04:07.784Z,57.54
2023-05-19T17:09:10.786Z,57.71
2023-05-19T17:14:14.415Z,57.98
2023-05-19T17:19:17.439Z,58.03
2023-05-19T17:24:20.521Z,58.34
2023-05-19T17:29:23.636Z,58.37
2023-05-19T17:34:26.749Z,58.63
2023-05-19T17:39:29.745Z,58.80
2023-05-19T17:44:33.058Z,58.69
2023-05-19T17:49:36.198Z,58.79
2023-05-19T17:54:39.411Z,58.91
2023-05-19T17:59:42.818Z,59.37
2023-05-19T18:04:46.457Z,59.60
2023-05-19T18:09:51.678Z,59.41
2023-05-19T18:14:55.300Z,59.37
2023-05-19T18:19:59.025Z,59.78
2023-05-19T18:25:02.148Z,60.30
2023-05-19T18:30:06.522Z,59.80
2023-05-19T18:35:10.065Z,60.00
2023-05-19T18:40:13.314Z,60.07
2023-05-19T18:45:16.317Z,60.33
2023-05-19T18:50:19.624Z,60.79
2023-05-19T18:55:23.537Z,60.95
2023-05-19T19:00:28.290Z,61.04
2023-05-19T19:05:31.509Z,68.97
2023-05-19T19:10:37.293Z,68.47
2023-05-19T19:15:40.287Z,60.52
2023-05-19T19:20:43.293Z,54.34
2023-05-19T19:25:46.404Z,53.00
2023-05-19T19:30:49.799Z,54.06
2023-05-19T19:35:52.722Z,55.44
2023-05-19T19:40:55.743Z,56.76
2023-05-19T19:46:04.609Z,58.04
2023-05-19T19:51:07.794Z,59.01
2023-05-19T19:56:10.901Z,60.05
2023-05-19T20:01:13.905Z,60.94
2023-05-19T20:06:17.019Z,68.71
2023-05-19T20:11:23.113Z,70.69
2023-05-19T20:16:26.237Z,65.72
2023-05-19T20:21:29.309Z,58.14
2023-05-19T20:26:32.498Z,54.66
2023-05-19T20:31:35.633Z,55.32
2023-05-19T20:36:38.634Z,56.92
2023-05-19T20:41:41.644Z,58.51
2023-05-19T20:46:44.653Z,59.77
2023-05-19T20:51:47.860Z,66.76
2023-05-19T20:56:52.003Z,68.42
2023-05-19T21:01:55.001Z,63.74
2023-05-19T21:06:58.148Z,59.88
2023-05-19T21:12:01.361Z,54.45
2023-05-19T21:17:04.906Z,53.69
2023-05-19T21:22:07.950Z,55.84
2023-05-19T21:27:11.781Z,57.37
2023-05-19T21:32:14.882Z,59.10
2023-05-19T21:37:17.895Z,61.21
2023-05-19T21:42:20.895Z,67.72
2023-05-19T21:47:23.741Z,67.95
2023-05-19T21:52:26.704Z,62.99
2023-05-19T21:57:29.611Z,60.46
2023-05-19T22:02:32.538Z,54.86
2023-05-19T22:07:36.027Z,53.84
2023-05-19T22:12:39.039Z,55.49
2023-05-19T22:17:42.773Z,57.30
2023-05-19T22:22:45.870Z,58.76
2023-05-19T22:27:48.887Z,64.92
2023-05-19T22:32:51.809Z,65.56
2023-05-19T22:37:54.753Z,61.58
2023-05-19T22:42:57.796Z,56.32
2023-05-19T22:48:00.948Z,55.34
2023-05-19T22:53:03.906Z,56.55
2023-05-19T22:58:06.808Z,57.43
2023-05-19T23:03:09.758Z,58.91
2023-05-19T23:08:12.823Z,61.06
2023-05-19T23:13:15.829Z,67.99
2023-05-19T23:18:18.839Z,68.14
2023-05-19T23:23:21.848Z,62.50
2023-05-19T23:28:24.862Z,59.58
2023-05-19T23:33:27.860Z,54.73
2023-05-19T23:38:30.866Z,55.57
2023-05-19T23:43:33.886Z,56.46
2023-05-19T23:48:36.882Z,58.63
2023-05-19T23:53:39.888Z,60.04
2023-05-19T23:58:42.790Z,67.39
